sensor_id;sensor_type;location;lat;lon;timestamp;P1;durP1;ratioP1;P2;durP2;ratioP2
8297;SDS011;4187;42.778;23.242;2022-12-29T00:01:46;33.83;;;23.20;;
8297;SDS011;4187;42.778;23.242;2022-12-29T00:04:14;29.03;;;22.00;;
8297;SDS011;4187;42.778;23.242;2022-12-29T00:06:42;30.47;;;19.37;;
8297;SDS011;4187;42.778;23.242;2022-12-29T00:09:10;22.60;;;14.97;;
8297;SDS011;4187;42.778;23.242;2022-12-29T00:11:37;20.70;;;15.83;;
8297;SDS011;4187;42.778;23.242;2022-12-29T00:14:04;19.53;;;14.53;;
8297;SDS011;4187;42.778;23.242;2022-12-29T00:16:49;17.40;;;13.00;;
8297;SDS011;4187;42.778;23.242;2022-12-29T00:19:17;15.43;;;11.73;;
8297;SDS011;4187;42.778;23.242;2022-12-29T00:22:02;14.53;;;12.27;;
8297;SDS011;4187;42.778;23.242;2022-12-29T00:24:46;15.70;;;11.60;;
8297;SDS011;4187;42.778;23.242;2022-12-29T00:27:31;14.30;;;10.70;;
8297;SDS011;4187;42.778;23.242;2022-12-29T00:30:17;16.50;;;11.67;;
8297;SDS011;4187;42.778;23.242;2022-12-29T00:33:07;15.90;;;11.83;;
8297;SDS011;4187;42.778;23.242;2022-12-29T00:35:55;14.97;;;11.53;;
8297;SDS011;4187;42.778;23.242;2022-12-29T00:38:26;16.00;;;11.47;;
8297;SDS011;4187;42.778;23.242;2022-12-29T00:41:11;16.43;;;12.17;;
8297;SDS011;4187;42.778;23.242;2022-12-29T00:43:55;17.30;;;12.43;;
8297;SDS011;4187;42.778;23.242;2022-12-29T00:46:31;14.77;;;12.37;;
8297;SDS011;4187;42.778;23.242;2022-12-29T00:48:58;16.37;;;12.07;;
8297;SDS011;4187;42.778;23.242;2022-12-29T00:51:43;15.97;;;11.87;;
8297;SDS011;4187;42.778;23.242;2022-12-29T00:54:10;14.63;;;11.53;;
8297;SDS011;4187;42.778;23.242;2022-12-29T00:56:37;14.43;;;12.40;;
8297;SDS011;4187;42.778;23.242;2022-12-29T00:59:05;15.00;;;12.67;;
8297;SDS011;4187;42.778;23.242;2022-12-29T01:01:33;18.00;;;12.67;;
8297;SDS011;4187;42.778;23.242;2022-12-29T01:04:00;16.97;;;13.33;;
8297;SDS011;4187;42.778;23.242;2022-12-29T01:06:27;17.83;;;13.27;;
8297;SDS011;4187;42.778;23.242;2022-12-29T01:08:55;19.33;;;13.93;;
8297;SDS011;4187;42.778;23.242;2022-12-29T01:11:36;15.63;;;12.93;;
8297;SDS011;4187;42.778;23.242;2022-12-29T01:14:03;15.33;;;13.13;;
8297;SDS011;4187;42.778;23.242;2022-12-29T01:16:31;16.70;;;13.70;;
8297;SDS011;4187;42.778;23.242;2022-12-29T01:18:59;16.67;;;13.67;;
8297;SDS011;4187;42.778;23.242;2022-12-29T01:21:26;17.17;;;13.77;;
8297;SDS011;4187;42.778;23.242;2022-12-29T01:23:53;15.23;;;13.37;;
8297;SDS011;4187;42.778;23.242;2022-12-29T01:26:21;17.40;;;14.10;;
8297;SDS011;4187;42.778;23.242;2022-12-29T01:28:48;16.00;;;12.93;;
8297;SDS011;4187;42.778;23.242;2022-12-29T01:31:15;15.23;;;13.63;;
8297;SDS011;4187;42.778;23.242;2022-12-29T01:33:42;16.53;;;12.70;;
8297;SDS011;4187;42.778;23.242;2022-12-29T01:36:10;17.50;;;13.80;;
8297;SDS011;4187;42.778;23.242;2022-12-29T01:38:39;19.13;;;13.47;;
8297;SDS011;4187;42.778;23.242;2022-12-29T01:41:06;16.20;;;13.20;;
8297;SDS011;4187;42.778;23.242;2022-12-29T01:43:43;22.30;;;15.20;;
8297;SDS011;4187;42.778;23.242;2022-12-29T01:46:14;21.50;;;15.40;;
8297;SDS011;4187;42.778;23.242;2022-12-29T01:48:48;21.80;;;14.67;;
8297;SDS011;4187;42.778;23.242;2022-12-29T01:51:19;20.43;;;14.97;;
8297;SDS011;4187;42.778;23.242;2022-12-29T01:53:48;15.57;;;12.63;;
8297;SDS011;4187;42.778;23.242;2022-12-29T01:56:16;14.77;;;12.83;;
8297;SDS011;4187;42.778;23.242;2022-12-29T01:58:48;17.33;;;13.07;;
8297;SDS011;4187;42.778;23.242;2022-12-29T02:01:20;16.77;;;12.90;;
8297;SDS011;4187;42.778;23.242;2022-12-29T02:03:47;15.63;;;12.37;;
8297;SDS011;4187;42.778;23.242;2022-12-29T02:06:17;17.43;;;12.07;;
8297;SDS011;4187;42.778;23.242;2022-12-29T02:08:47;15.63;;;11.73;;
8297;SDS011;4187;42.778;23.242;2022-12-29T02:11:16;16.37;;;12.53;;
8297;SDS011;4187;42.778;23.242;2022-12-29T02:13:44;15.43;;;13.00;;
8297;SDS011;4187;42.778;23.242;2022-12-29T02:16:17;13.70;;;12.23;;
8297;SDS011;4187;42.778;23.242;2022-12-29T02:19:00;15.90;;;12.43;;
8297;SDS011;4187;42.778;23.242;2022-12-29T02:21:55;16.00;;;13.00;;
8297;SDS011;4187;42.778;23.242;2022-12-29T02:24:48;16.17;;;12.30;;
8297;SDS011;4187;42.778;23.242;2022-12-29T02:27:36;16.10;;;13.00;;
8297;SDS011;4187;42.778;23.242;2022-12-29T02:33:27;14.00;;;12.50;;
8297;SDS011;4187;42.778;23.242;2022-12-29T02:36:06;15.03;;;12.47;;
8297;SDS011;4187;42.778;23.242;2022-12-29T02:38:49;16.10;;;11.97;;
8297;SDS011;4187;42.778;23.242;2022-12-29T02:41:28;14.60;;;12.07;;
8297;SDS011;4187;42.778;23.242;2022-12-29T02:44:00;16.37;;;12.90;;
8297;SDS011;4187;42.778;23.242;2022-12-29T02:46:36;28.80;;;18.87;;
8297;SDS011;4187;42.778;23.242;2022-12-29T02:49:09;26.77;;;17.97;;
8297;SDS011;4187;42.778;23.242;2022-12-29T02:51:42;25.07;;;17.07;;
8297;SDS011;4187;42.778;23.242;2022-12-29T02:54:12;23.60;;;15.93;;
8297;SDS011;4187;42.778;23.242;2022-12-29T02:56:59;18.67;;;14.30;;
8297;SDS011;4187;42.778;23.242;2022-12-29T02:59:26;19.03;;;14.23;;
8297;SDS011;4187;42.778;23.242;2022-12-29T03:02:03;23.10;;;16.47;;
8297;SDS011;4187;42.778;23.242;2022-12-29T03:04:46;20.47;;;16.40;;
8297;SDS011;4187;42.778;23.242;2022-12-29T03:07:26;24.33;;;17.37;;
8297;SDS011;4187;42.778;23.242;2022-12-29T03:10:01;22.07;;;15.60;;
8297;SDS011;4187;42.778;23.242;2022-12-29T03:12:36;22.07;;;16.63;;
8297;SDS011;4187;42.778;23.242;2022-12-29T03:15:26;22.87;;;15.67;;
8297;SDS011;4187;42.778;23.242;2022-12-29T03:18:15;17.47;;;13.30;;
8297;SDS011;4187;42.778;23.242;2022-12-29T03:20:49;17.53;;;13.47;;
8297;SDS011;4187;42.778;23.242;2022-12-29T03:23:20;15.50;;;11.90;;
8297;SDS011;4187;42.778;23.242;2022-12-29T03:25:51;16.83;;;12.17;;
8297;SDS011;4187;42.778;23.242;2022-12-29T03:28:22;13.90;;;11.90;;
8297;SDS011;4187;42.778;23.242;2022-12-29T03:30:52;14.90;;;12.10;;
8297;SDS011;4187;42.778;23.242;2022-12-29T03:33:21;20.23;;;13.40;;
8297;SDS011;4187;42.778;23.242;2022-12-29T03:35:50;16.60;;;12.67;;
8297;SDS011;4187;42.778;23.242;2022-12-29T03:38:21;20.23;;;13.33;;
8297;SDS011;4187;42.778;23.242;2022-12-29T03:40:52;18.53;;;13.37;;
8297;SDS011;4187;42.778;23.242;2022-12-29T03:43:21;18.50;;;12.33;;
8297;SDS011;4187;42.778;23.242;2022-12-29T03:45:48;15.30;;;12.30;;
8297;SDS011;4187;42.778;23.242;2022-12-29T03:48:15;11.50;;;9.90;;
8297;SDS011;4187;42.778;23.242;2022-12-29T03:50:43;17.93;;;10.53;;
8297;SDS011;4187;42.778;23.242;2022-12-29T03:53:10;13.63;;;11.13;;
8297;SDS011;4187;42.778;23.242;2022-12-29T03:55:37;17.10;;;10.50;;
8297;SDS011;4187;42.778;23.242;2022-12-29T03:58:04;16.80;;;11.40;;
8297;SDS011;4187;42.778;23.242;2022-12-29T04:00:31;12.53;;;10.00;;
8297;SDS011;4187;42.778;23.242;2022-12-29T04:02:57;11.73;;;9.77;;
8297;SDS011;4187;42.778;23.242;2022-12-29T04:05:24;11.70;;;9.83;;
8297;SDS011;4187;42.778;23.242;2022-12-29T04:07:53;12.87;;;10.07;;
8297;SDS011;4187;42.778;23.242;2022-12-29T04:10:19;14.53;;;10.20;;
8297;SDS011;4187;42.778;23.242;2022-12-29T04:12:46;15.73;;;11.43;;
8297;SDS011;4187;42.778;23.242;2022-12-29T04:15:13;16.47;;;11.53;;
8297;SDS011;4187;42.778;23.242;2022-12-29T04:17:40;17.47;;;12.50;;
8297;SDS011;4187;42.778;23.242;2022-12-29T04:20:07;13.77;;;11.23;;
8297;SDS011;4187;42.778;23.242;2022-12-29T04:22:58;16.83;;;12.93;;
8297;SDS011;4187;42.778;23.242;2022-12-29T04:25:26;26.47;;;16.67;;
8297;SDS011;4187;42.778;23.242;2022-12-29T04:27:53;26.17;;;17.73;;
8297;SDS011;4187;42.778;23.242;2022-12-29T04:30:19;28.13;;;17.23;;
8297;SDS011;4187;42.778;23.242;2022-12-29T04:32:46;31.77;;;20.83;;
8297;SDS011;4187;42.778;23.242;2022-12-29T04:35:13;28.47;;;19.80;;
8297;SDS011;4187;42.778;23.242;2022-12-29T04:37:40;21.83;;;16.97;;
8297;SDS011;4187;42.778;23.242;2022-12-29T04:40:09;25.40;;;17.67;;
8297;SDS011;4187;42.778;23.242;2022-12-29T04:42:37;28.77;;;20.03;;
8297;SDS011;4187;42.778;23.242;2022-12-29T04:45:04;25.57;;;18.47;;
8297;SDS011;4187;42.778;23.242;2022-12-29T04:47:31;26.37;;;18.47;;
8297;SDS011;4187;42.778;23.242;2022-12-29T04:49:58;20.70;;;15.80;;
8297;SDS011;4187;42.778;23.242;2022-12-29T04:52:25;17.67;;;13.70;;
8297;SDS011;4187;42.778;23.242;2022-12-29T04:54:52;18.57;;;13.23;;
8297;SDS011;4187;42.778;23.242;2022-12-29T04:57:20;17.60;;;14.57;;
8297;SDS011;4187;42.778;23.242;2022-12-29T04:59:47;18.47;;;13.90;;
8297;SDS011;4187;42.778;23.242;2022-12-29T05:02:14;18.97;;;13.67;;
8297;SDS011;4187;42.778;23.242;2022-12-29T05:04:41;16.47;;;13.50;;
8297;SDS011;4187;42.778;23.242;2022-12-29T05:07:07;20.23;;;15.67;;
8297;SDS011;4187;42.778;23.242;2022-12-29T05:09:34;30.70;;;24.37;;
8297;SDS011;4187;42.778;23.242;2022-12-29T05:12:01;34.77;;;25.50;;
8297;SDS011;4187;42.778;23.242;2022-12-29T05:14:29;30.47;;;23.50;;
8297;SDS011;4187;42.778;23.242;2022-12-29T05:16:56;23.83;;;18.80;;
8297;SDS011;4187;42.778;23.242;2022-12-29T05:19:23;27.57;;;20.20;;
8297;SDS011;4187;42.778;23.242;2022-12-29T05:21:50;26.27;;;20.03;;
8297;SDS011;4187;42.778;23.242;2022-12-29T05:24:17;29.90;;;20.10;;
8297;SDS011;4187;42.778;23.242;2022-12-29T05:26:43;23.27;;;18.07;;
8297;SDS011;4187;42.778;23.242;2022-12-29T05:29:10;23.33;;;16.57;;
8297;SDS011;4187;42.778;23.242;2022-12-29T05:31:38;21.37;;;15.80;;
8297;SDS011;4187;42.778;23.242;2022-12-29T05:34:05;21.57;;;16.73;;
8297;SDS011;4187;42.778;23.242;2022-12-29T05:36:32;29.23;;;20.00;;
8297;SDS011;4187;42.778;23.242;2022-12-29T05:38:59;64.43;;;30.57;;
8297;SDS011;4187;42.778;23.242;2022-12-29T05:41:25;105.93;;;46.80;;
8297;SDS011;4187;42.778;23.242;2022-12-29T05:43:52;104.83;;;44.57;;
8297;SDS011;4187;42.778;23.242;2022-12-29T05:46:19;85.20;;;39.47;;
8297;SDS011;4187;42.778;23.242;2022-12-29T05:48:47;89.93;;;38.90;;
8297;SDS011;4187;42.778;23.242;2022-12-29T05:51:14;98.73;;;40.47;;
8297;SDS011;4187;42.778;23.242;2022-12-29T05:53:40;61.10;;;33.20;;
8297;SDS011;4187;42.778;23.242;2022-12-29T05:56:07;48.93;;;27.23;;
8297;SDS011;4187;42.778;23.242;2022-12-29T05:58:34;37.30;;;23.77;;
8297;SDS011;4187;42.778;23.242;2022-12-29T06:01:01;36.63;;;23.57;;
8297;SDS011;4187;42.778;23.242;2022-12-29T06:03:28;34.03;;;23.03;;
8297;SDS011;4187;42.778;23.242;2022-12-29T06:05:56;47.80;;;26.87;;
8297;SDS011;4187;42.778;23.242;2022-12-29T06:08:23;37.07;;;23.93;;
8297;SDS011;4187;42.778;23.242;2022-12-29T06:10:50;41.83;;;23.27;;
8297;SDS011;4187;42.778;23.242;2022-12-29T06:13:17;50.57;;;27.03;;
8297;SDS011;4187;42.778;23.242;2022-12-29T06:15:43;44.50;;;24.93;;
8297;SDS011;4187;42.778;23.242;2022-12-29T06:18:10;58.33;;;30.33;;
8297;SDS011;4187;42.778;23.242;2022-12-29T06:20:37;37.70;;;23.93;;
8297;SDS011;4187;42.778;23.242;2022-12-29T06:23:05;38.17;;;21.17;;
8297;SDS011;4187;42.778;23.242;2022-12-29T06:25:32;38.63;;;21.97;;
8297;SDS011;4187;42.778;23.242;2022-12-29T06:28:00;37.27;;;22.03;;
8297;SDS011;4187;42.778;23.242;2022-12-29T06:30:27;37.53;;;23.87;;
8297;SDS011;4187;42.778;23.242;2022-12-29T06:32:54;34.73;;;20.60;;
8297;SDS011;4187;42.778;23.242;2022-12-29T06:35:21;32.47;;;18.23;;
8297;SDS011;4187;42.778;23.242;2022-12-29T06:37:48;32.23;;;19.77;;
8297;SDS011;4187;42.778;23.242;2022-12-29T06:40:16;34.93;;;20.27;;
8297;SDS011;4187;42.778;23.242;2022-12-29T06:42:43;24.13;;;17.53;;
8297;SDS011;4187;42.778;23.242;2022-12-29T06:45:10;23.03;;;15.50;;
8297;SDS011;4187;42.778;23.242;2022-12-29T06:47:37;23.03;;;16.47;;
8297;SDS011;4187;42.778;23.242;2022-12-29T06:50:04;25.53;;;17.20;;
8297;SDS011;4187;42.778;23.242;2022-12-29T06:52:32;28.63;;;17.17;;
8297;SDS011;4187;42.778;23.242;2022-12-29T06:54:58;24.40;;;16.93;;
8297;SDS011;4187;42.778;23.242;2022-12-29T06:57:27;22.47;;;17.40;;
8297;SDS011;4187;42.778;23.242;2022-12-29T06:59:53;31.00;;;20.80;;
8297;SDS011;4187;42.778;23.242;2022-12-29T07:02:21;35.00;;;24.53;;
8297;SDS011;4187;42.778;23.242;2022-12-29T07:04:50;28.93;;;21.67;;
8297;SDS011;4187;42.778;23.242;2022-12-29T07:07:17;31.20;;;21.37;;
8297;SDS011;4187;42.778;23.242;2022-12-29T07:09:44;35.70;;;24.27;;
8297;SDS011;4187;42.778;23.242;2022-12-29T07:12:10;36.37;;;23.93;;
8297;SDS011;4187;42.778;23.242;2022-12-29T07:14:39;27.57;;;22.17;;
8297;SDS011;4187;42.778;23.242;2022-12-29T07:17:05;31.10;;;23.20;;
8297;SDS011;4187;42.778;23.242;2022-12-29T07:19:32;33.90;;;23.20;;
8297;SDS011;4187;42.778;23.242;2022-12-29T07:21:59;29.57;;;22.40;;
8297;SDS011;4187;42.778;23.242;2022-12-29T07:24:26;32.43;;;24.07;;
8297;SDS011;4187;42.778;23.242;2022-12-29T07:26:53;28.07;;;21.63;;
8297;SDS011;4187;42.778;23.242;2022-12-29T07:29:19;30.70;;;22.67;;
8297;SDS011;4187;42.778;23.242;2022-12-29T07:31:48;38.00;;;25.90;;
8297;SDS011;4187;42.778;23.242;2022-12-29T07:34:14;28.70;;;23.17;;
8297;SDS011;4187;42.778;23.242;2022-12-29T07:36:41;35.63;;;24.43;;
8297;SDS011;4187;42.778;23.242;2022-12-29T07:39:08;32.50;;;23.65;;
8297;SDS011;4187;42.778;23.242;2022-12-29T07:41:35;28.77;;;22.53;;
8297;SDS011;4187;42.778;23.242;2022-12-29T07:44:01;26.83;;;20.43;;
8297;SDS011;4187;42.778;23.242;2022-12-29T07:46:28;29.10;;;20.87;;
8297;SDS011;4187;42.778;23.242;2022-12-29T07:48:56;31.23;;;23.47;;
8297;SDS011;4187;42.778;23.242;2022-12-29T07:51:23;36.03;;;24.50;;
8297;SDS011;4187;42.778;23.242;2022-12-29T07:53:50;50.23;;;29.43;;
8297;SDS011;4187;42.778;23.242;2022-12-29T07:56:17;47.40;;;29.80;;
8297;SDS011;4187;42.778;23.242;2022-12-29T07:58:43;28.27;;;20.45;;
8297;SDS011;4187;42.778;23.242;2022-12-29T08:01:10;23.80;;;16.42;;
8297;SDS011;4187;42.778;23.242;2022-12-29T08:03:37;17.87;;;14.07;;
8297;SDS011;4187;42.778;23.242;2022-12-29T08:06:08;23.57;;;15.30;;
8297;SDS011;4187;42.778;23.242;2022-12-29T08:08:35;22.07;;;15.70;;
8297;SDS011;4187;42.778;23.242;2022-12-29T08:11:03;28.43;;;18.80;;
8297;SDS011;4187;42.778;23.242;2022-12-29T08:13:30;19.57;;;14.23;;
8297;SDS011;4187;42.778;23.242;2022-12-29T08:15:57;14.63;;;12.97;;
8297;SDS011;4187;42.778;23.242;2022-12-29T08:18:24;15.07;;;12.67;;
8297;SDS011;4187;42.778;23.242;2022-12-29T08:20:50;12.47;;;10.93;;
8297;SDS011;4187;42.778;23.242;2022-12-29T08:23:19;15.40;;;12.57;;
8297;SDS011;4187;42.778;23.242;2022-12-29T08:25:45;15.83;;;12.77;;
8297;SDS011;4187;42.778;23.242;2022-12-29T08:28:12;14.33;;;12.13;;
8297;SDS011;4187;42.778;23.242;2022-12-29T08:30:39;18.43;;;13.97;;
8297;SDS011;4187;42.778;23.242;2022-12-29T08:33:07;18.63;;;14.67;;
8297;SDS011;4187;42.778;23.242;2022-12-29T08:35:33;18.87;;;14.77;;
8297;SDS011;4187;42.778;23.242;2022-12-29T08:38:00;19.08;;;14.93;;
8297;SDS011;4187;42.778;23.242;2022-12-29T08:40:28;16.25;;;13.70;;
8297;SDS011;4187;42.778;23.242;2022-12-29T08:42:55;18.85;;;14.40;;
8297;SDS011;4187;42.778;23.242;2022-12-29T08:45:22;20.20;;;15.15;;
8297;SDS011;4187;42.778;23.242;2022-12-29T08:47:49;16.85;;;13.07;;
8297;SDS011;4187;42.778;23.242;2022-12-29T08:50:16;15.48;;;12.75;;
8297;SDS011;4187;42.778;23.242;2022-12-29T08:52:43;17.33;;;13.55;;
8297;SDS011;4187;42.778;23.242;2022-12-29T08:55:09;16.40;;;13.20;;
8297;SDS011;4187;42.778;23.242;2022-12-29T08:57:38;17.90;;;14.05;;
8297;SDS011;4187;42.778;23.242;2022-12-29T09:00:05;17.73;;;13.55;;
8297;SDS011;4187;42.778;23.242;2022-12-29T09:02:33;17.20;;;13.77;;
8297;SDS011;4187;42.778;23.242;2022-12-29T09:05:00;18.23;;;13.65;;
8297;SDS011;4187;42.778;23.242;2022-12-29T09:07:27;24.50;;;17.63;;
8297;SDS011;4187;42.778;23.242;2022-12-29T09:09:53;23.75;;;17.85;;
8297;SDS011;4187;42.778;23.242;2022-12-29T09:12:20;17.88;;;14.45;;
8297;SDS011;4187;42.778;23.242;2022-12-29T09:14:48;19.08;;;14.32;;
8297;SDS011;4187;42.778;23.242;2022-12-29T09:17:15;17.63;;;14.73;;
8297;SDS011;4187;42.778;23.242;2022-12-29T09:19:59;25.63;;;17.10;;
8297;SDS011;4187;42.778;23.242;2022-12-29T09:22:26;20.17;;;16.42;;
8297;SDS011;4187;42.778;23.242;2022-12-29T09:24:53;21.73;;;16.30;;
8297;SDS011;4187;42.778;23.242;2022-12-29T09:27:20;18.55;;;16.55;;
8297;SDS011;4187;42.778;23.242;2022-12-29T09:29:47;23.83;;;18.55;;
8297;SDS011;4187;42.778;23.242;2022-12-29T09:32:15;38.90;;;25.27;;
8297;SDS011;4187;42.778;23.242;2022-12-29T09:34:42;23.08;;;15.55;;
8297;SDS011;4187;42.778;23.242;2022-12-29T09:37:09;17.98;;;13.38;;
8297;SDS011;4187;42.778;23.242;2022-12-29T09:39:35;16.02;;;12.98;;
8297;SDS011;4187;42.778;23.242;2022-12-29T09:42:04;15.00;;;13.40;;
8297;SDS011;4187;42.778;23.242;2022-12-29T09:44:40;19.33;;;14.05;;
8297;SDS011;4187;42.778;23.242;2022-12-29T09:47:16;18.08;;;14.10;;
8297;SDS011;4187;42.778;23.242;2022-12-29T09:49:46;19.42;;;14.88;;
8297;SDS011;4187;42.778;23.242;2022-12-29T09:52:20;16.63;;;13.57;;
8297;SDS011;4187;42.778;23.242;2022-12-29T09:54:51;15.77;;;13.75;;
8297;SDS011;4187;42.778;23.242;2022-12-29T09:57:21;18.38;;;14.77;;
8297;SDS011;4187;42.778;23.242;2022-12-29T09:59:52;16.00;;;14.32;;
8297;SDS011;4187;42.778;23.242;2022-12-29T10:02:34;15.43;;;12.60;;
8297;SDS011;4187;42.778;23.242;2022-12-29T10:05:12;17.13;;;14.20;;
8297;SDS011;4187;42.778;23.242;2022-12-29T10:07:52;18.10;;;13.35;;
8297;SDS011;4187;42.778;23.242;2022-12-29T10:10:34;13.50;;;12.10;;
8297;SDS011;4187;42.778;23.242;2022-12-29T10:13:14;15.98;;;13.15;;
8297;SDS011;4187;42.778;23.242;2022-12-29T10:15:50;14.93;;;13.30;;
8297;SDS011;4187;42.778;23.242;2022-12-29T10:18:40;20.90;;;16.10;;
8297;SDS011;4187;42.778;23.242;2022-12-29T10:21:17;17.17;;;14.18;;
8297;SDS011;4187;42.778;23.242;2022-12-29T10:23:55;17.73;;;14.18;;
8297;SDS011;4187;42.778;23.242;2022-12-29T10:26:23;17.52;;;14.07;;
8297;SDS011;4187;42.778;23.242;2022-12-29T10:28:54;24.05;;;16.45;;
8297;SDS011;4187;42.778;23.242;2022-12-29T10:31:25;21.23;;;15.43;;
8297;SDS011;4187;42.778;23.242;2022-12-29T10:33:59;24.58;;;16.42;;
8297;SDS011;4187;42.778;23.242;2022-12-29T10:36:30;22.20;;;15.20;;
8297;SDS011;4187;42.778;23.242;2022-12-29T10:39:02;19.33;;;14.13;;
8297;SDS011;4187;42.778;23.242;2022-12-29T10:41:41;21.00;;;14.55;;
8297;SDS011;4187;42.778;23.242;2022-12-29T10:44:14;17.85;;;15.15;;
8297;SDS011;4187;42.778;23.242;2022-12-29T10:46:43;19.95;;;16.52;;
8297;SDS011;4187;42.778;23.242;2022-12-29T10:49:18;20.88;;;16.42;;
8297;SDS011;4187;42.778;23.242;2022-12-29T10:51:46;19.98;;;16.77;;
8297;SDS011;4187;42.778;23.242;2022-12-29T10:54:18;23.88;;;17.27;;
8297;SDS011;4187;42.778;23.242;2022-12-29T10:56:50;17.75;;;14.63;;
8297;SDS011;4187;42.778;23.242;2022-12-29T10:59:21;19.10;;;15.18;;
8297;SDS011;4187;42.778;23.242;2022-12-29T11:01:51;16.50;;;13.50;;
8297;SDS011;4187;42.778;23.242;2022-12-29T11:04:35;18.13;;;13.68;;
8297;SDS011;4187;42.778;23.242;2022-12-29T11:07:14;18.17;;;13.10;;
8297;SDS011;4187;42.778;23.242;2022-12-29T11:09:43;17.88;;;14.25;;
8297;SDS011;4187;42.778;23.242;2022-12-29T11:12:18;15.68;;;12.73;;
8297;SDS011;4187;42.778;23.242;2022-12-29T11:14:46;16.13;;;12.02;;
8297;SDS011;4187;42.778;23.242;2022-12-29T11:17:14;15.82;;;12.50;;
8297;SDS011;4187;42.778;23.242;2022-12-29T11:19:44;15.00;;;12.20;;
8297;SDS011;4187;42.778;23.242;2022-12-29T11:22:12;15.35;;;12.23;;
8297;SDS011;4187;42.778;23.242;2022-12-29T11:24:47;14.48;;;11.43;;
8297;SDS011;4187;42.778;23.242;2022-12-29T11:27:16;14.60;;;11.73;;
8297;SDS011;4187;42.778;23.242;2022-12-29T11:29:44;12.40;;;10.98;;
8297;SDS011;4187;42.778;23.242;2022-12-29T11:32:12;14.38;;;11.65;;
8297;SDS011;4187;42.778;23.242;2022-12-29T11:34:46;13.43;;;11.93;;
8297;SDS011;4187;42.778;23.242;2022-12-29T11:37:14;14.88;;;12.45;;
8297;SDS011;4187;42.778;23.242;2022-12-29T11:39:45;15.10;;;12.65;;
8297;SDS011;4187;42.778;23.242;2022-12-29T11:42:18;17.80;;;12.55;;
8297;SDS011;4187;42.778;23.242;2022-12-29T11:44:49;14.70;;;12.77;;
8297;SDS011;4187;42.778;23.242;2022-12-29T11:47:22;14.57;;;13.07;;
8297;SDS011;4187;42.778;23.242;2022-12-29T11:49:55;14.23;;;12.48;;
8297;SDS011;4187;42.778;23.242;2022-12-29T11:52:25;14.45;;;12.57;;
8297;SDS011;4187;42.778;23.242;2022-12-29T11:54:56;13.93;;;12.38;;
8297;SDS011;4187;42.778;23.242;2022-12-29T11:57:23;16.35;;;12.60;;
8297;SDS011;4187;42.778;23.242;2022-12-29T11:59:52;15.07;;;12.85;;
8297;SDS011;4187;42.778;23.242;2022-12-29T12:02:27;17.63;;;13.82;;
8297;SDS011;4187;42.778;23.242;2022-12-29T12:05:03;16.98;;;12.98;;
8297;SDS011;4187;42.778;23.242;2022-12-29T12:07:37;17.17;;;14.65;;
8297;SDS011;4187;42.778;23.242;2022-12-29T12:10:11;18.08;;;15.52;;
8297;SDS011;4187;42.778;23.242;2022-12-29T12:12:44;34.63;;;24.48;;
8297;SDS011;4187;42.778;23.242;2022-12-29T12:15:17;18.05;;;14.50;;
8297;SDS011;4187;42.778;23.242;2022-12-29T12:17:50;19.10;;;15.75;;
8297;SDS011;4187;42.778;23.242;2022-12-29T12:20:22;17.67;;;14.65;;
8297;SDS011;4187;42.778;23.242;2022-12-29T12:22:58;15.43;;;13.65;;
8297;SDS011;4187;42.778;23.242;2022-12-29T12:25:34;17.92;;;14.13;;
8297;SDS011;4187;42.778;23.242;2022-12-29T12:28:05;18.70;;;15.05;;
8297;SDS011;4187;42.778;23.242;2022-12-29T12:30:40;19.27;;;16.73;;
8297;SDS011;4187;42.778;23.242;2022-12-29T12:33:13;16.85;;;14.02;;
8297;SDS011;4187;42.778;23.242;2022-12-29T12:35:51;20.60;;;16.15;;
8297;SDS011;4187;42.778;23.242;2022-12-29T12:38:26;19.27;;;15.63;;
8297;SDS011;4187;42.778;23.242;2022-12-29T12:41:06;16.95;;;14.38;;
8297;SDS011;4187;42.778;23.242;2022-12-29T12:43:40;18.63;;;13.95;;
8297;SDS011;4187;42.778;23.242;2022-12-29T12:49:26;25.77;;;20.98;;
8297;SDS011;4187;42.778;23.242;2022-12-29T12:52:29;18.58;;;15.23;;
8297;SDS011;4187;42.778;23.242;2022-12-29T12:55:09;14.82;;;12.68;;
8297;SDS011;4187;42.778;23.242;2022-12-29T12:57:53;12.75;;;11.45;;
8297;SDS011;4187;42.778;23.242;2022-12-29T13:00:31;13.20;;;11.80;;
8297;SDS011;4187;42.778;23.242;2022-12-29T13:03:04;20.25;;;17.58;;
8297;SDS011;4187;42.778;23.242;2022-12-29T13:05:49;17.38;;;15.48;;
8297;SDS011;4187;42.778;23.242;2022-12-29T13:08:37;23.75;;;21.23;;
8297;SDS011;4187;42.778;23.242;2022-12-29T13:11:17;19.27;;;13.05;;
8297;SDS011;4187;42.778;23.242;2022-12-29T13:13:54;17.40;;;15.35;;
8297;SDS011;4187;42.778;23.242;2022-12-29T13:16:34;20.35;;;16.45;;
8297;SDS011;4187;42.778;23.242;2022-12-29T13:19:09;37.45;;;30.75;;
8297;SDS011;4187;42.778;23.242;2022-12-29T13:21:47;29.38;;;25.05;;
8297;SDS011;4187;42.778;23.242;2022-12-29T13:24:26;22.38;;;17.40;;
8297;SDS011;4187;42.778;23.242;2022-12-29T13:26:59;21.25;;;17.73;;
8297;SDS011;4187;42.778;23.242;2022-12-29T13:29:31;18.70;;;16.35;;
8297;SDS011;4187;42.778;23.242;2022-12-29T13:32:07;22.17;;;18.05;;
8297;SDS011;4187;42.778;23.242;2022-12-29T13:35:01;23.05;;;18.83;;
8297;SDS011;4187;42.778;23.242;2022-12-29T13:37:42;30.73;;;23.73;;
8297;SDS011;4187;42.778;23.242;2022-12-29T13:40:18;25.33;;;19.42;;
8297;SDS011;4187;42.778;23.242;2022-12-29T13:42:49;26.73;;;20.75;;
8297;SDS011;4187;42.778;23.242;2022-12-29T13:45:19;29.40;;;23.90;;
8297;SDS011;4187;42.778;23.242;2022-12-29T13:47:49;38.95;;;34.58;;
8297;SDS011;4187;42.778;23.242;2022-12-29T13:50:22;29.77;;;21.73;;
8297;SDS011;4187;42.778;23.242;2022-12-29T13:52:55;34.25;;;26.55;;
8297;SDS011;4187;42.778;23.242;2022-12-29T13:55:32;37.65;;;26.92;;
8297;SDS011;4187;42.778;23.242;2022-12-29T13:58:04;46.35;;;33.72;;
8297;SDS011;4187;42.778;23.242;2022-12-29T14:00:42;50.95;;;37.03;;
8297;SDS011;4187;42.778;23.242;2022-12-29T14:03:24;35.75;;;25.05;;
8297;SDS011;4187;42.778;23.242;2022-12-29T14:06:21;28.02;;;22.80;;
8297;SDS011;4187;42.778;23.242;2022-12-29T14:08:51;33.92;;;25.52;;
8297;SDS011;4187;42.778;23.242;2022-12-29T14:11:22;32.88;;;26.67;;
8297;SDS011;4187;42.778;23.242;2022-12-29T14:13:54;29.35;;;23.25;;
8297;SDS011;4187;42.778;23.242;2022-12-29T14:16:26;33.78;;;25.00;;
8297;SDS011;4187;42.778;23.242;2022-12-29T14:19:03;40.33;;;30.58;;
8297;SDS011;4187;42.778;23.242;2022-12-29T14:21:36;44.47;;;31.00;;
8297;SDS011;4187;42.778;23.242;2022-12-29T14:33:15;48.13;;;33.42;;
8297;SDS011;4187;42.778;23.242;2022-12-29T14:35:43;44.97;;;34.45;;
8297;SDS011;4187;42.778;23.242;2022-12-29T14:38:18;42.03;;;32.60;;
8297;SDS011;4187;42.778;23.242;2022-12-29T14:40:47;53.47;;;34.05;;
8297;SDS011;4187;42.778;23.242;2022-12-29T14:43:19;32.03;;;25.77;;
8297;SDS011;4187;42.778;23.242;2022-12-29T14:45:56;31.45;;;24.38;;
8297;SDS011;4187;42.778;23.242;2022-12-29T14:51:17;40.28;;;32.30;;
8297;SDS011;4187;42.778;23.242;2022-12-29T14:53:46;37.53;;;27.05;;
8297;SDS011;4187;42.778;23.242;2022-12-29T14:56:15;38.33;;;30.17;;
8297;SDS011;4187;42.778;23.242;2022-12-29T14:58:46;48.38;;;35.78;;
8297;SDS011;4187;42.778;23.242;2022-12-29T15:01:18;48.70;;;36.28;;
8297;SDS011;4187;42.778;23.242;2022-12-29T15:03:49;57.58;;;39.47;;
8297;SDS011;4187;42.778;23.242;2022-12-29T15:06:18;51.35;;;38.83;;
8297;SDS011;4187;42.778;23.242;2022-12-29T15:08:48;46.15;;;38.53;;
8297;SDS011;4187;42.778;23.242;2022-12-29T15:11:19;47.15;;;37.53;;
8297;SDS011;4187;42.778;23.242;2022-12-29T15:13:49;50.75;;;42.80;;
8297;SDS011;4187;42.778;23.242;2022-12-29T15:16:23;33.15;;;24.67;;